sensor_id;sensor_type;location;lat;lon;timestamp;pressure;altitude;pressure_sealevel;temperature;humidity
5053;BME280;2545;50.892;5.740;2023-02-20T00:02:04;56394.47;;;-142.21;100.00
5053;BME280;2545;50.892;5.740;2023-02-20T00:04:29;56410.16;;;-142.21;100.00
5053;BME280;2545;50.892;5.740;2023-02-20T00:06:55;56406.22;;;-142.21;100.00
5053;BME280;2545;50.892;5.740;2023-02-20T00:09:20;56396.44;;;-142.21;100.00
5053;BME280;2545;50.892;5.740;2023-02-20T00:11:45;56365.06;;;-142.21;100.00
5053;BME280;2545;50.892;5.740;2023-02-20T00:14:11;56398.38;;;-142.21;100.00
5053;BME280;2545;50.892;5.740;2023-02-20T00:16:37;56406.22;;;-142.21;100.00
5053;BME280;2545;50.892;5.740;2023-02-20T00:19:02;56398.38;;;-142.21;100.00
5053;BME280;2545;50.892;5.740;2023-02-20T00:21:28;56425.84;;;-142.21;100.00
5053;BME280;2545;50.892;5.740;2023-02-20T00:23:53;56331.72;;;-142.21;100.00
5053;BME280;2545;50.892;5.740;2023-02-20T00:26:19;56410.16;;;-142.21;100.00
5053;BME280;2545;50.892;5.740;2023-02-20T00:28:44;56435.66;;;-142.21;100.00
5053;BME280;2545;50.892;5.740;2023-02-20T00:31:14;56376.81;;;-142.21;100.00
5053;BME280;2545;50.892;5.740;2023-02-20T00:33:41;56427.81;;;-142.21;100.00
5053;BME280;2545;50.892;5.740;2023-02-20T00:36:06;56347.41;;;-142.21;100.00
5053;BME280;2545;50.892;5.740;2023-02-20T00:38:31;56439.56;;;-142.21;100.00
5053;BME280;2545;50.892;5.740;2023-02-20T00:40:57;56419.97;;;-142.21;100.00
5053;BME280;2545;50.892;5.740;2023-02-20T00:43:22;56384.66;;;-142.21;100.00
5053;BME280;2545;50.892;5.740;2023-02-20T00:45:47;56402.31;;;-142.21;100.00
5053;BME280;2545;50.892;5.740;2023-02-20T00:48:13;56404.28;;;-142.21;100.00
5053;BME280;2545;50.892;5.740;2023-02-20T00:50:38;56370.94;;;-142.21;100.00
5053;BME280;2545;50.892;5.740;2023-02-20T00:53:03;56394.47;;;-142.21;100.00
5053;BME280;2545;50.892;5.740;2023-02-20T00:55:29;56410.16;;;-142.21;100.00
5053;BME280;2545;50.892;5.740;2023-02-20T00:57:54;56412.13;;;-142.21;100.00
5053;BME280;2545;50.892;5.740;2023-02-20T01:00:26;56398.38;;;-142.21;100.00
5053;BME280;2545;50.892;5.740;2023-02-20T01:02:51;56374.84;;;-142.21;100.00
5053;BME280;2545;50.892;5.740;2023-02-20T01:05:17;56384.66;;;-142.21;100.00
5053;BME280;2545;50.892;5.740;2023-02-20T01:07:43;56421.91;;;-142.21;100.00
5053;BME280;2545;50.892;5.740;2023-02-20T01:10:09;56396.44;;;-142.21;100.00
5053;BME280;2545;50.892;5.740;2023-02-20T01:12:35;56392.50;;;-142.21;100.00
5053;BME280;2545;50.892;5.740;2023-02-20T01:15:00;56386.63;;;-142.21;100.00
5053;BME280;2545;50.892;5.740;2023-02-20T01:17:26;56370.94;;;-142.21;100.00
5053;BME280;2545;50.892;5.740;2023-02-20T01:19:51;56365.06;;;-142.21;100.00
5053;BME280;2545;50.892;5.740;2023-02-20T01:22:16;56425.84;;;-142.21;100.00
5053;BME280;2545;50.892;5.740;2023-02-20T01:24:41;56402.31;;;-142.21;100.00
5053;BME280;2545;50.892;5.740;2023-02-20T01:27:08;56372.91;;;-142.21;100.00
5053;BME280;2545;50.892;5.740;2023-02-20T01:29:34;56390.53;;;-142.21;100.00
5053;BME280;2545;50.892;5.740;2023-02-20T01:31:59;56427.81;;;-142.21;100.00
5053;BME280;2545;50.892;5.740;2023-02-20T01:34:24;56386.63;;;-142.21;100.00
5053;BME280;2545;50.892;5.740;2023-02-20T01:36:52;56406.22;;;-142.21;100.00
5053;BME280;2545;50.892;5.740;2023-02-20T01:39:20;56402.31;;;-142.21;100.00
5053;BME280;2545;50.892;5.740;2023-02-20T01:41:47;56388.59;;;-142.21;100.00
5053;BME280;2545;50.892;5.740;2023-02-20T01:44:19;56414.06;;;-142.21;100.00
5053;BME280;2545;50.892;5.740;2023-02-20T01:46:50;56386.63;;;-142.21;100.00
5053;BME280;2545;50.892;5.740;2023-02-20T01:49:21;56414.06;;;-142.21;100.00
5053;BME280;2545;50.892;5.740;2023-02-20T01:51:55;56351.31;;;-142.21;100.00
5053;BME280;2545;50.892;5.740;2023-02-20T01:54:23;56412.13;;;-142.21;100.00
5053;BME280;2545;50.892;5.740;2023-02-20T01:56:50;56402.31;;;-142.21;100.00
5053;BME280;2545;50.892;5.740;2023-02-20T01:59:19;56398.38;;;-142.21;100.00
5053;BME280;2545;50.892;5.740;2023-02-20T02:01:46;56406.22;;;-142.21;100.00
5053;BME280;2545;50.892;5.740;2023-02-20T02:04:12;56382.69;;;-142.21;100.00
5053;BME280;2545;50.892;5.740;2023-02-20T02:06:42;56361.13;;;-142.21;100.00
5053;BME280;2545;50.892;5.740;2023-02-20T02:09:18;56376.81;;;-142.21;100.00
5053;BME280;2545;50.892;5.740;2023-02-20T02:11:47;56386.63;;;-142.21;100.00
5053;BME280;2545;50.892;5.740;2023-02-20T02:14:13;56418.00;;;-142.21;100.00
5053;BME280;2545;50.892;5.740;2023-02-20T02:50:28;56390.53;;;-142.21;100.00
5053;BME280;2545;50.892;5.740;2023-02-20T02:52:56;56406.22;;;-142.21;100.00
5053;BME280;2545;50.892;5.740;2023-02-20T02:55:22;56359.16;;;-142.21;100.00
5053;BME280;2545;50.892;5.740;2023-02-20T02:57:48;56372.91;;;-142.21;100.00
5053;BME280;2545;50.892;5.740;2023-02-20T03:00:18;56394.47;;;-142.21;100.00
5053;BME280;2545;50.892;5.740;2023-02-20T03:05:20;56410.16;;;-142.21;100.00
5053;BME280;2545;50.892;5.740;2023-02-20T03:07:52;56384.66;;;-142.21;100.00
5053;BME280;2545;50.892;5.740;2023-02-20T03:10:21;56404.28;;;-142.21;100.00
5053;BME280;2545;50.892;5.740;2023-02-20T03:12:58;56398.38;;;-142.21;100.00
5053;BME280;2545;50.892;5.740;2023-02-20T03:15:29;56398.38;;;-142.21;100.00
5053;BME280;2545;50.892;5.740;2023-02-20T03:18:26;56429.75;;;-142.21;100.00
5053;BME280;2545;50.892;5.740;2023-02-20T03:21:03;56402.31;;;-142.21;100.00
5053;BME280;2545;50.892;5.740;2023-02-20T03:23:35;56386.63;;;-142.21;100.00
5053;BME280;2545;50.892;5.740;2023-02-20T03:26:05;56390.53;;;-142.21;100.00
5053;BME280;2545;50.892;5.740;2023-02-20T03:28:55;56390.53;;;-142.21;100.00
5053;BME280;2545;50.892;5.740;2023-02-20T03:37:02;56416.03;;;-142.21;100.00
5053;BME280;2545;50.892;5.740;2023-02-20T03:39:51;56419.97;;;-142.21;100.00
5053;BME280;2545;50.892;5.740;2023-02-20T03:42:40;56386.63;;;-142.21;100.00
5053;BME280;2545;50.892;5.740;2023-02-20T03:45:27;56378.78;;;-142.21;100.00
5053;BME280;2545;50.892;5.740;2023-02-20T03:47:58;56361.13;;;-142.21;100.00
5053;BME280;2545;50.892;5.740;2023-02-20T03:50:26;56398.38;;;-142.21;100.00
5053;BME280;2545;50.892;5.740;2023-02-20T03:52:51;56388.59;;;-142.21;100.00
5053;BME280;2545;50.892;5.740;2023-02-20T03:55:17;56365.06;;;-142.21;100.00
5053;BME280;2545;50.892;5.740;2023-02-20T03:57:48;56367.00;;;-142.21;100.00
5053;BME280;2545;50.892;5.740;2023-02-20T04:00:17;56398.38;;;-142.21;100.00
5053;BME280;2545;50.892;5.740;2023-02-20T04:02:46;56414.06;;;-142.21;100.00
5053;BME280;2545;50.892;5.740;2023-02-20T04:05:17;56390.53;;;-142.21;100.00
5053;BME280;2545;50.892;5.740;2023-02-20T04:07:50;56359.16;;;-142.21;100.00
5053;BME280;2545;50.892;5.740;2023-02-20T04:10:25;56384.66;;;-142.21;100.00
5053;BME280;2545;50.892;5.740;2023-02-20T04:12:53;56398.38;;;-142.21;100.00
5053;BME280;2545;50.892;5.740;2023-02-20T04:15:21;56361.13;;;-142.21;100.00
5053;BME280;2545;50.892;5.740;2023-02-20T04:17:51;56435.66;;;-142.21;100.00
5053;BME280;2545;50.892;5.740;2023-02-20T04:20:18;56435.66;;;-142.21;100.00
5053;BME280;2545;50.892;5.740;2023-02-20T04:22:46;56404.28;;;-142.21;100.00
5053;BME280;2545;50.892;5.740;2023-02-20T04:28:05;56378.78;;;-142.21;100.00
5053;BME280;2545;50.892;5.740;2023-02-20T04:30:31;56394.47;;;-142.21;100.00
5053;BME280;2545;50.892;5.740;2023-02-20T04:32:56;56390.53;;;-142.21;100.00
5053;BME280;2545;50.892;5.740;2023-02-20T04:35:22;56418.00;;;-142.21;100.00
5053;BME280;2545;50.892;5.740;2023-02-20T04:37:47;56404.28;;;-142.21;100.00
5053;BME280;2545;50.892;5.740;2023-02-20T04:40:16;56396.44;;;-142.21;100.00
5053;BME280;2545;50.892;5.740;2023-02-20T04:42:41;56382.69;;;-142.21;100.00
5053;BME280;2545;50.892;5.740;2023-02-20T04:45:07;56402.31;;;-142.21;100.00
5053;BME280;2545;50.892;5.740;2023-02-20T04:47:32;56408.19;;;-142.21;100.00
5053;BME280;2545;50.892;5.740;2023-02-20T04:49:58;56361.13;;;-142.21;100.00
5053;BME280;2545;50.892;5.740;2023-02-20T04:52:23;56359.16;;;-142.21;100.00
5053;BME280;2545;50.892;5.740;2023-02-20T04:54:49;56386.63;;;-142.21;100.00
5053;BME280;2545;50.892;5.740;2023-02-20T04:57:14;56418.00;;;-142.21;100.00
5053;BME280;2545;50.892;5.740;2023-02-20T04:59:40;56408.19;;;-142.21;100.00
5053;BME280;2545;50.892;5.740;2023-02-20T05:02:05;56398.38;;;-142.21;100.00
5053;BME280;2545;50.892;5.740;2023-02-20T05:04:30;56382.69;;;-142.21;100.00
5053;BME280;2545;50.892;5.740;2023-02-20T05:06:56;56406.22;;;-142.21;100.00
5053;BME280;2545;50.892;5.740;2023-02-20T05:09:22;56404.28;;;-142.21;100.00
5053;BME280;2545;50.892;5.740;2023-02-20T05:11:47;56376.81;;;-142.21;100.00
5053;BME280;2545;50.892;5.740;2023-02-20T05:14:13;56392.50;;;-142.21;100.00
5053;BME280;2545;50.892;5.740;2023-02-20T05:16:39;56400.34;;;-142.21;100.00
5053;BME280;2545;50.892;5.740;2023-02-20T05:19:06;56392.50;;;-142.21;100.00
5053;BME280;2545;50.892;5.740;2023-02-20T05:21:32;56378.78;;;-142.21;100.00
5053;BME280;2545;50.892;5.740;2023-02-20T05:24:16;56382.69;;;-142.21;100.00
5053;BME280;2545;50.892;5.740;2023-02-20T05:26:41;56412.13;;;-142.21;100.00
5053;BME280;2545;50.892;5.740;2023-02-20T05:29:07;56380.75;;;-142.21;100.00
5053;BME280;2545;50.892;5.740;2023-02-20T05:31:34;56418.00;;;-142.21;100.00
5053;BME280;2545;50.892;5.740;2023-02-20T05:34:00;56410.16;;;-142.21;100.00
5053;BME280;2545;50.892;5.740;2023-02-20T05:36:25;56396.44;;;-142.21;100.00
5053;BME280;2545;50.892;5.740;2023-02-20T05:38:50;56429.75;;;-142.21;100.00
5053;BME280;2545;50.892;5.740;2023-02-20T05:41:16;56388.59;;;-142.21;100.00
5053;BME280;2545;50.892;5.740;2023-02-20T05:43:42;56408.19;;;-142.21;100.00
5053;BME280;2545;50.892;5.740;2023-02-20T05:46:07;56388.59;;;-142.21;100.00
5053;BME280;2545;50.892;5.740;2023-02-20T05:48:33;56404.28;;;-142.21;100.00
5053;BME280;2545;50.892;5.740;2023-02-20T05:50:58;56396.44;;;-142.21;100.00
5053;BME280;2545;50.892;5.740;2023-02-20T05:53:27;56363.09;;;-142.21;100.00
5053;BME280;2545;50.892;5.740;2023-02-20T05:55:52;56441.53;;;-142.21;100.00
5053;BME280;2545;50.892;5.740;2023-02-20T05:58:18;56421.91;;;-142.21;100.00
5053;BME280;2545;50.892;5.740;2023-02-20T06:00:43;56388.59;;;-142.21;100.00
5053;BME280;2545;50.892;5.740;2023-02-20T06:03:08;56410.16;;;-142.21;100.00
5053;BME280;2545;50.892;5.740;2023-02-20T06:05:34;56406.22;;;-142.21;100.00
5053;BME280;2545;50.892;5.740;2023-02-20T06:08:00;56416.03;;;-142.21;100.00
5053;BME280;2545;50.892;5.740;2023-02-20T06:10:25;56408.19;;;-142.21;100.00
5053;BME280;2545;50.892;5.740;2023-02-20T06:12:51;56376.81;;;-142.21;100.00
5053;BME280;2545;50.892;5.740;2023-02-20T06:15:16;56394.47;;;-142.21;100.00
5053;BME280;2545;50.892;5.740;2023-02-20T06:17:41;56394.47;;;-142.21;100.00
5053;BME280;2545;50.892;5.740;2023-02-20T06:20:07;56394.47;;;-142.21;100.00
5053;BME280;2545;50.892;5.740;2023-02-20T06:22:33;56408.19;;;-142.21;100.00
5053;BME280;2545;50.892;5.740;2023-02-20T06:24:58;56378.78;;;-142.21;100.00
5053;BME280;2545;50.892;5.740;2023-02-20T06:27:23;56390.53;;;-142.21;100.00
5053;BME280;2545;50.892;5.740;2023-02-20T06:29:49;56378.78;;;-142.21;100.00
5053;BME280;2545;50.892;5.740;2023-02-20T06:32:15;56374.84;;;-142.21;100.00
5053;BME280;2545;50.892;5.740;2023-02-20T06:34:43;56418.00;;;-142.21;100.00
5053;BME280;2545;50.892;5.740;2023-02-20T06:37:08;56388.59;;;-142.21;100.00
5053;BME280;2545;50.892;5.740;2023-02-20T06:39:33;56378.78;;;-142.21;100.00
5053;BME280;2545;50.892;5.740;2023-02-20T06:41:59;56374.84;;;-142.21;100.00
5053;BME280;2545;50.892;5.740;2023-02-20T06:44:24;56370.94;;;-142.21;100.00
5053;BME280;2545;50.892;5.740;2023-02-20T06:46:49;56378.78;;;-142.21;100.00
5053;BME280;2545;50.892;5.740;2023-02-20T06:49:15;56367.00;;;-142.21;100.00
5053;BME280;2545;50.892;5.740;2023-02-20T06:51:40;56418.00;;;-142.21;100.00
5053;BME280;2545;50.892;5.740;2023-02-20T06:54:06;56394.47;;;-142.21;100.00
5053;BME280;2545;50.892;5.740;2023-02-20T06:56:33;56398.38;;;-142.21;100.00
5053;BME280;2545;50.892;5.740;2023-02-20T06:59:00;56390.53;;;-142.21;100.00
5053;BME280;2545;50.892;5.740;2023-02-20T07:01:28;56380.75;;;-142.21;100.00
5053;BME280;2545;50.892;5.740;2023-02-20T07:03:56;56365.06;;;-142.21;100.00
5053;BME280;2545;50.892;5.740;2023-02-20T07:06:22;56418.00;;;-142.21;100.00
5053;BME280;2545;50.892;5.740;2023-02-20T07:08:48;56392.50;;;-142.21;100.00
5053;BME280;2545;50.892;5.740;2023-02-20T07:11:16;56382.69;;;-142.21;100.00
5053;BME280;2545;50.892;5.740;2023-02-20T07:13:42;56396.44;;;-142.21;100.00
5053;BME280;2545;50.892;5.740;2023-02-20T07:16:07;56392.50;;;-142.21;100.00
5053;BME280;2545;50.892;5.740;2023-02-20T07:18:32;56402.31;;;-142.21;100.00
5053;BME280;2545;50.892;5.740;2023-02-20T07:20:58;56427.81;;;-142.21;100.00
5053;BME280;2545;50.892;5.740;2023-02-20T07:23:23;56400.34;;;-142.21;100.00
5053;BME280;2545;50.892;5.740;2023-02-20T07:25:49;56390.53;;;-142.21;100.00
5053;BME280;2545;50.892;5.740;2023-02-20T07:28:15;56370.94;;;-142.21;100.00
5053;BME280;2545;50.892;5.740;2023-02-20T07:30:42;56372.91;;;-142.21;100.00
5053;BME280;2545;50.892;5.740;2023-02-20T07:33:08;56414.06;;;-142.21;100.00
5053;BME280;2545;50.892;5.740;2023-02-20T07:35:33;56386.63;;;-142.21;100.00
5053;BME280;2545;50.892;5.740;2023-02-20T07:38:00;56406.22;;;-142.21;100.00
5053;BME280;2545;50.892;5.740;2023-02-20T07:40:25;56370.94;;;-142.21;100.00
5053;BME280;2545;50.892;5.740;2023-02-20T07:42:50;56363.09;;;-142.21;100.00
5053;BME280;2545;50.892;5.740;2023-02-20T07:45:16;56394.47;;;-142.21;100.00
5053;BME280;2545;50.892;5.740;2023-02-20T07:47:41;56388.59;;;-142.21;100.00
5053;BME280;2545;50.892;5.740;2023-02-20T07:50:07;56388.59;;;-142.21;100.00
5053;BME280;2545;50.892;5.740;2023-02-20T07:52:32;56392.50;;;-142.21;100.00
5053;BME280;2545;50.892;5.740;2023-02-20T07:54:58;56378.78;;;-142.21;100.00
5053;BME280;2545;50.892;5.740;2023-02-20T07:57:24;56386.63;;;-142.21;100.00
5053;BME280;2545;50.892;5.740;2023-02-20T07:59:49;56370.94;;;-142.21;100.00
5053;BME280;2545;50.892;5.740;2023-02-20T08:02:14;56378.78;;;-142.21;100.00
5053;BME280;2545;50.892;5.740;2023-02-20T08:04:40;56412.13;;;-142.21;100.00
5053;BME280;2545;50.892;5.740;2023-02-20T08:07:05;56378.78;;;-142.21;100.00
5053;BME280;2545;50.892;5.740;2023-02-20T08:09:31;56380.75;;;-142.21;100.00
5053;BME280;2545;50.892;5.740;2023-02-20T08:11:56;56388.59;;;-142.21;100.00
5053;BME280;2545;50.892;5.740;2023-02-20T08:14:22;56404.28;;;-142.21;100.00
5053;BME280;2545;50.892;5.740;2023-02-20T08:16:47;56370.94;;;-142.21;100.00
5053;BME280;2545;50.892;5.740;2023-02-20T08:19:12;56380.75;;;-142.21;100.00
5053;BME280;2545;50.892;5.740;2023-02-20T08:21:38;56378.78;;;-142.21;100.00
5053;BME280;2545;50.892;5.740;2023-02-20T08:24:03;56412.13;;;-142.21;100.00
5053;BME280;2545;50.892;5.740;2023-02-20T08:26:29;56410.16;;;-142.21;100.00
5053;BME280;2545;50.892;5.740;2023-02-20T08:28:54;56400.34;;;-142.21;100.00
5053;BME280;2545;50.892;5.740;2023-02-20T08:31:19;56372.91;;;-142.21;100.00
5053;BME280;2545;50.892;5.740;2023-02-20T08:33:45;56425.84;;;-142.21;100.00
5053;BME280;2545;50.892;5.740;2023-02-20T08:36:11;56384.66;;;-142.21;100.00
5053;BME280;2545;50.892;5.740;2023-02-20T08:38:37;56378.78;;;-142.21;100.00
5053;BME280;2545;50.892;5.740;2023-02-20T08:41:05;56382.69;;;-142.21;100.00
5053;BME280;2545;50.892;5.740;2023-02-20T08:43:32;56406.22;;;-142.21;100.00
5053;BME280;2545;50.892;5.740;2023-02-20T08:45:57;56418.00;;;-142.21;100.00
5053;BME280;2545;50.892;5.740;2023-02-20T08:48:23;56376.81;;;-142.21;100.00
5053;BME280;2545;50.892;5.740;2023-02-20T08:50:48;56414.06;;;-142.21;100.00
5053;BME280;2545;50.892;5.740;2023-02-20T08:53:14;56406.22;;;-142.21;100.00
5053;BME280;2545;50.892;5.740;2023-02-20T08:55:39;56404.28;;;-142.21;100.00
5053;BME280;2545;50.892;5.740;2023-02-20T08:58:05;56374.84;;;-142.21;100.00
5053;BME280;2545;50.892;5.740;2023-02-20T09:00:30;56402.31;;;-142.21;100.00
5053;BME280;2545;50.892;5.740;2023-02-20T09:02:55;56414.06;;;-142.21;100.00
5053;BME280;2545;50.892;5.740;2023-02-20T09:05:21;56386.63;;;-142.21;100.00
5053;BME280;2545;50.892;5.740;2023-02-20T09:07:47;56388.59;;;-142.21;100.00
5053;BME280;2545;50.892;5.740;2023-02-20T09:10:12;56429.75;;;-142.21;100.00
5053;BME280;2545;50.892;5.740;2023-02-20T09:12:37;56406.22;;;-142.21;100.00
5053;BME280;2545;50.892;5.740;2023-02-20T09:15:07;56394.47;;;-142.21;100.00
5053;BME280;2545;50.892;5.740;2023-02-20T09:17:33;56392.50;;;-142.21;100.00
5053;BME280;2545;50.892;5.740;2023-02-20T09:19:58;56398.38;;;-142.21;100.00
5053;BME280;2545;50.892;5.740;2023-02-20T09:22:24;56359.16;;;-142.21;100.00
5053;BME280;2545;50.892;5.740;2023-02-20T09:24:53;56351.31;;;-142.21;100.00
5053;BME280;2545;50.892;5.740;2023-02-20T09:27:19;56388.59;;;-142.21;100.00
5053;BME280;2545;50.892;5.740;2023-02-20T09:29:45;56349.38;;;-142.21;100.00
5053;BME280;2545;50.892;5.740;2023-02-20T09:32:12;56345.44;;;-142.21;100.00
5053;BME280;2545;50.892;5.740;2023-02-20T09:34:37;56378.78;;;-142.21;100.00
5053;BME280;2545;50.892;5.740;2023-02-20T09:37:03;56423.88;;;-142.21;100.00
5053;BME280;2545;50.892;5.740;2023-02-20T09:39:29;56421.91;;;-142.21;100.00
5053;BME280;2545;50.892;5.740;2023-02-20T09:42:11;56398.38;;;-142.21;100.00
5053;BME280;2545;50.892;5.740;2023-02-20T09:44:57;56382.69;;;-142.21;100.00
5053;BME280;2545;50.892;5.740;2023-02-20T09:50:05;56412.13;;;-142.21;100.00
5053;BME280;2545;50.892;5.740;2023-02-20T09:52:36;56404.28;;;-142.21;100.00
5053;BME280;2545;50.892;5.740;2023-02-20T09:55:07;56367.00;;;-142.21;100.00
5053;BME280;2545;50.892;5.740;2023-02-20T09:57:35;56343.47;;;-142.21;100.00
5053;BME280;2545;50.892;5.740;2023-02-20T10:00:07;56368.97;;;-142.21;100.00
5053;BME280;2545;50.892;5.740;2023-02-20T10:02:39;56410.16;;;-142.21;100.00
5053;BME280;2545;50.892;5.740;2023-02-20T10:05:13;56370.94;;;-142.21;100.00
5053;BME280;2545;50.892;5.740;2023-02-20T10:07:42;56370.94;;;-142.21;100.00
5053;BME280;2545;50.892;5.740;2023-02-20T10:10:31;56386.63;;;-142.21;100.00
5053;BME280;2545;50.892;5.740;2023-02-20T10:19:18;56400.34;;;-142.21;100.00
5053;BME280;2545;50.892;5.740;2023-02-20T10:22:12;56406.22;;;-142.21;100.00
5053;BME280;2545;50.892;5.740;2023-02-20T10:24:51;56408.19;;;-142.21;100.00
5053;BME280;2545;50.892;5.740;2023-02-20T10:29:52;56386.63;;;-142.21;100.00
5053;BME280;2545;50.892;5.740;2023-02-20T10:32:22;56374.84;;;-142.21;100.00
5053;BME280;2545;50.892;5.740;2023-02-20T10:34:58;56406.22;;;-142.21;100.00
5053;BME280;2545;50.892;5.740;2023-02-20T10:37:28;56402.31;;;-142.21;100.00
5053;BME280;2545;50.892;5.740;2023-02-20T10:40:05;56382.69;;;-142.21;100.00
5053;BME280;2545;50.892;5.740;2023-02-20T10:42:45;56410.16;;;-142.21;100.00
5053;BME280;2545;50.892;5.740;2023-02-20T10:45:59;56374.84;;;-142.21;100.00
5053;BME280;2545;50.892;5.740;2023-02-20T10:48:04;56394.47;;;-142.21;100.00
5053;BME280;2545;50.892;5.740;2023-02-20T10:56:15;56408.19;;;-142.21;100.00
5053;BME280;2545;50.892;5.740;2023-02-20T10:59:07;56370.94;;;-142.21;100.00
5053;BME280;2545;50.892;5.740;2023-02-20T11:01:36;56400.34;;;-142.21;100.00
5053;BME280;2545;50.892;5.740;2023-02-20T11:04:10;56394.47;;;-142.21;100.00
5053;BME280;2545;50.892;5.740;2023-02-20T11:06:40;56368.97;;;-142.21;100.00
5053;BME280;2545;50.892;5.740;2023-02-20T11:09:08;56339.56;;;-142.21;100.00
5053;BME280;2545;50.892;5.740;2023-02-20T11:11:36;56398.38;;;-142.21;100.00
5053;BME280;2545;50.892;5.740;2023-02-20T11:14:15;56382.69;;;-142.21;100.00
5053;BME280;2545;50.892;5.740;2023-02-20T11:16:50;56425.84;;;-142.21;100.00
5053;BME280;2545;50.892;5.740;2023-02-20T11:19:25;56408.19;;;-142.21;100.00
5053;BME280;2545;50.892;5.740;2023-02-20T11:21:52;56367.00;;;-142.21;100.00
5053;BME280;2545;50.892;5.740;2023-02-20T11:24:34;56388.59;;;-142.21;100.00
5053;BME280;2545;50.892;5.740;2023-02-20T11:27:03;56376.81;;;-142.21;100.00
5053;BME280;2545;50.892;5.740;2023-02-20T11:30:15;56390.53;;;-142.21;100.00
5053;BME280;2545;50.892;5.740;2023-02-20T11:37:41;56380.75;;;-142.21;100.00
5053;BME280;2545;50.892;5.740;2023-02-20T11:40:16;56386.63;;;-142.21;100.00
5053;BME280;2545;50.892;5.740;2023-02-20T11:42:42;56380.75;;;-142.21;100.00
5053;BME280;2545;50.892;5.740;2023-02-20T11:45:27;56418.00;;;-142.21;100.00
5053;BME280;2545;50.892;5.740;2023-02-20T11:48:16;56414.06;;;-142.21;100.00
5053;BME280;2545;50.892;5.740;2023-02-20T11:50:44;56404.28;;;-142.21;100.00
5053;BME280;2545;50.892;5.740;2023-02-20T11:53:22;56384.66;;;-142.21;100.00
5053;BME280;2545;50.892;5.740;2023-02-20T11:56:04;56367.00;;;-142.21;100.00
5053;BME280;2545;50.892;5.740;2023-02-20T11:58:30;56414.06;;;-142.21;100.00
5053;BME280;2545;50.892;5.740;2023-02-20T12:00:56;56392.50;;;-142.21;100.00
5053;BME280;2545;50.892;5.740;2023-02-20T12:03:24;56374.84;;;-142.21;100.00
5053;BME280;2545;50.892;5.740;2023-02-20T12:05:50;56396.44;;;-142.21;100.00
5053;BME280;2545;50.892;5.740;2023-02-20T12:08:23;56402.31;;;-142.21;100.00
5053;BME280;2545;50.892;5.740;2023-02-20T12:10:54;56410.16;;;-142.21;100.00
5053;BME280;2545;50.892;5.740;2023-02-20T12:13:24;56408.19;;;-142.21;100.00
5053;BME280;2545;50.892;5.740;2023-02-20T12:16:00;56412.13;;;-142.21;100.00
5053;BME280;2545;50.892;5.740;2023-02-20T12:18:40;56384.66;;;-142.21;100.00
5053;BME280;2545;50.892;5.740;2023-02-20T12:21:38;56363.09;;;-142.21;100.00
5053;BME280;2545;50.892;5.740;2023-02-20T12:27:02;56386.63;;;-142.21;100.00
5053;BME280;2545;50.892;5.740;2023-02-20T12:29:40;56416.03;;;-142.21;100.00
5053;BME280;2545;50.892;5.740;2023-02-20T12:37:43;56343.47;;;-142.21;100.00
5053;BME280;2545;50.892;5.740;2023-02-20T12:45:26;56396.44;;;-142.21;100.00
5053;BME280;2545;50.892;5.740;2023-02-20T12:53:59;56400.34;;;-142.21;100.00
5053;BME280;2545;50.892;5.740;2023-02-20T13:02:26;56372.91;;;-142.21;100.00
5053;BME280;2545;50.892;5.740;2023-02-20T13:04:56;56367.00;;;-142.21;100.00
5053;BME280;2545;50.892;5.740;2023-02-20T13:07:42;56349.38;;;-142.21;100.00
5053;BME280;2545;50.892;5.740;2023-02-20T13:10:21;56374.84;;;-142.21;100.00
5053;BME280;2545;50.892;5.740;2023-02-20T13:12:48;56396.44;;;-142.21;100.00
5053;BME280;2545;50.892;5.740;2023-02-20T13:20:25;56386.63;;;-142.21;100.00
5053;BME280;2545;50.892;5.740;2023-02-20T13:25:45;56368.97;;;-142.21;100.00
5053;BME280;2545;50.892;5.740;2023-02-20T13:30:37;56372.91;;;-142.21;100.00
5053;BME280;2545;50.892;5.740;2023-02-20T13:33:19;56402.31;;;-142.21;100.00
5053;BME280;2545;50.892;5.740;2023-02-20T13:35:52;56412.13;;;-142.21;100.00
5053;BME280;2545;50.892;5.740;2023-02-20T13:38:20;56400.34;;;-142.21;100.00
5053;BME280;2545;50.892;5.740;2023-02-20T13:48:37;56370.94;;;-142.21;100.00
5053;BME280;2545;50.892;5.740;2023-02-20T13:53:41;56404.28;;;-142.21;100.00
5053;BME280;2545;50.892;5.740;2023-02-20T13:56:25;56335.63;;;-142.21;99.75
5053;BME280;2545;50.892;5.740;2023-02-20T13:58:53;56382.69;;;-142.21;99.63
5053;BME280;2545;50.892;5.740;2023-02-20T14:01:20;56406.22;;;-142.21;98.64
5053;BME280;2545;50.892;5.740;2023-02-20T14:03:59;56372.91;;;-142.21;99.27
5053;BME280;2545;50.892;5.740;2023-02-20T14:06:24;56418.00;;;-142.21;98.26
5053;BME280;2545;50.892;5.740;2023-02-20T14:09:06;56316.03;;;-142.21;97.16
5053;BME280;2545;50.892;5.740;2023-02-20T14:11:35;56376.81;;;-142.21;98.32
5053;BME280;2545;50.892;5.740;2023-02-20T14:17:02;56410.16;;;-142.21;99.59
5053;BME280;2545;50.892;5.740;2023-02-20T14:19:28;56404.28;;;-142.21;98.59
5053;BME280;2545;50.892;5.740;2023-02-20T14:22:30;56339.56;;;-142.21;98.66
5053;BME280;2545;50.892;5.740;2023-02-20T14:25:17;56386.63;;;-142.21;98.46
5053;BME280;2545;50.892;5.740;2023-02-20T14:27:42;56368.97;;;-142.21;99.28
5053;BME280;2545;50.892;5.740;2023-02-20T14:30:18;56386.63;;;-142.21;99.31
5053;BME280;2545;50.892;5.740;2023-02-20T14:32:47;56368.97;;;-142.21;100.00
5053;BME280;2545;50.892;5.740;2023-02-20T14:35:38;56331.72;;;-142.21;100.00
5053;BME280;2545;50.892;5.740;2023-02-20T14:38:15;56378.78;;;-142.21;100.00
5053;BME280;2545;50.892;5.740;2023-02-20T14:40:43;56394.47;;;-142.21;99.82
5053;BME280;2545;50.892;5.740;2023-02-20T14:43:17;56392.50;;;-142.21;99.58
5053;BME280;2545;50.892;5.740;2023-02-20T14:45:45;56368.97;;;-142.21;100.00
5053;BME280;2545;50.892;5.740;2023-02-20T14:48:23;56398.38;;;-142.21;100.00
5053;BME280;2545;50.892;5.740;2023-02-20T14:51:23;56421.91;;;-142.21;100.00
5053;BME280;2545;50.892;5.740;2023-02-20T14:53:57;56394.47;;;-142.21;99.85
5053;BME280;2545;50.892;5.740;2023-02-20T14:56:23;56335.63;;;-142.21;99.59
5053;BME280;2545;50.892;5.740;2023-02-20T14:58:48;56386.63;;;-142.21;99.43